Terminal Aerodrome Forecast
Issued by NWS Boston, MA

Home | Current Version | Previous Version | Text Only | Print | Product List | Glossary Off
Versions: 1 2 3 4 5 6 7 8 9 10 11 12 13 14 15 16 17 18 19 20 21 22 23 24 25 26 27 28 29 30 31 32 33 34 35 36 37 38 39 40 41 42 43 44 45 46 47 48 49 50
100 FTUS41 KBOX 300539 AAB TAFBDL TAF AMD KBDL 300539Z 3006/0112 03008KT P6SM BKN025 OVC200 FM300900 04010KT P6SM VCSH OVC020 FM301200 03010KT P6SM VCSH OVC015 FM301500 04009KT P6SM VCSH OVC050 FM301700 04009KT 3SM -SHRA OVC050 FM302300 04009KT 2SM -SHRA BR OVC030 FM010200 04009KT 3SM -SHRA BR OVC015=

USA.gov is the U.S. government's official web portal to all federal, state and local government web resources and services.